If you wish to contribute or participate in the discussions about articles you are invited to join SKYbrary as a registered user

 Actions

Zhengzhou Xinzheng International Airport

From SKYbrary Wiki

ZHCC
Airport
ICAO: ZHCC – IATA: CGO
Summary
Name Zhengzhou Xinzheng International Airport
Region Asia and Pacific
Territory China CN.gif
Location Xinzheng, Zhengzhou, Henan
Serving Zhengzhou
Elevation 46.025 m
151 ft
151 ft46.025 m
Coordinates 34° 31' 11.00" N, 113° 50' 27.00" E
Runways
Designator Length Width Surface ROPS
12/30 3400 m11,154.856 ft
60 m196.85 ft
CON yes/yes


METAR
Observation ZHCC 210800Z 04004MPS 020V130 3000 HZ NSC 22/11 Q1017 NOSIG
Station Zhengzhou
Date/Time 21 October 2019 08:00:00
Wind direction 40°
Wind speed kts
Lowest cloud amount nil significant cloud
Temperature 22°C
Dew point 11°C
Humidity 49%
QNH 1017 hPa
Weather condition n/a

Zhengzhou Xinzheng International Airport

ICAO: ZHCC IATA: CGO

Description

Zhengzhou Xinzheng International Airport is the principal airport of Zhengzhou, Henan Province, People's Republic of China.

Climatology

Humid subtropical climate (Köppen climate classification Cfa.) Hot muggy summers with frequent thunderstorms. Winters are mild and precipitation during this season comes from mid-latitude cyclones. This climate type is quite common on the east coasts of continents.

Maps

Terrain

Loading map...

Airport Layout

Loading map...


Accidents & Serious Incidents at or in vicinity of ZHCC

None on SKYbrary